Time;durP1;ratioP1;P1;durP2;ratioP2;P2;SDS_P1;SDS_P2;PMS_P1;PMS_P2;Temp;Humidity;BMP_temperature;BMP_pressure;BME280_temperature;BME280_humidity;BME280_pressure;Samples;Min_cycle;Max_cycle;Signal;HPM_P1;HPM_P2
2021/07/13 00:01:03;;;;;;;12.37;4.43;;;18.70;99.90;;;19.80;100.00;97476.53;4976467;28;20487;-80
2021/07/13 00:03:33;;;;;;;10.20;4.40;;;18.80;99.90;;;19.78;100.00;97478.66;4983027;28;20477;-79
2021/07/13 00:06:04;;;;;;;10.60;3.63;;;18.80;99.90;;;19.70;100.00;97476.47;4974694;28;20679;-80
2021/07/13 00:08:34;;;;;;;16.30;5.00;;;18.80;99.90;;;19.47;100.00;97483.78;4972986;28;20460;-79
2021/07/13 00:11:04;;;;;;;6.93;4.60;;;18.50;99.90;;;19.41;100.00;97481.38;4982201;28;20476;-80
2021/07/13 00:13:35;;;;;;;6.10;4.20;;;18.50;99.90;;;19.40;100.00;97477.13;4980069;28;20984;-79
2021/07/13 00:16:06;;;;;;;11.53;4.50;;;18.40;99.90;;;19.47;100.00;97475.06;4979956;28;20461;-79
2021/07/13 00:18:37;;;;;;;6.33;4.53;;;18.50;99.90;;;19.52;100.00;97475.06;4979749;28;20480;-79
2021/07/13 00:21:11;;;;;;;5.87;4.43;;;18.50;99.90;;;19.55;100.00;97469.25;4972886;28;20469;-80
2021/07/13 00:23:41;;;;;;;4.63;4.13;;;18.60;99.90;;;19.61;100.00;97467.44;4980894;28;20465;-79
2021/07/13 00:26:10;;;;;;;10.80;4.77;;;18.70;99.90;;;19.63;100.00;97475.91;4977502;28;20882;-80
2021/07/13 00:28:42;;;;;;;17.73;4.20;;;18.70;99.90;;;19.64;100.00;97477.53;4979244;28;20461;-79
2021/07/13 00:31:11;;;;;;;6.57;4.07;;;18.70;99.90;;;19.62;100.00;97471.66;4978234;28;20866;-80
2021/07/13 00:33:40;;;;;;;4.70;3.50;;;18.60;99.90;;;19.65;100.00;97479.09;4987182;28;20492;-79
2021/07/13 00:36:11;;;;;;;8.10;5.13;;;18.60;99.90;;;19.65;100.00;97474.59;4983608;28;20475;-79
2021/07/13 00:38:42;;;;;;;5.20;4.00;;;18.60;99.90;;;19.65;100.00;97479.91;4968604;28;20453;-80
2021/07/13 00:41:11;;;;;;;8.03;4.77;;;18.70;99.90;;;19.59;100.00;97467.69;4973199;28;20489;-79
2021/07/13 00:43:41;;;;;;;8.90;4.73;;;18.60;99.90;;;19.56;100.00;97471.66;4977675;28;20460;-79
2021/07/13 00:46:12;;;;;;;8.80;4.40;;;18.60;99.90;;;19.62;100.00;97469.81;4979547;28;20981;-79
2021/07/13 00:48:42;;;;;;;6.30;3.90;;;18.60;99.90;;;19.64;100.00;97466.91;4990837;28;20448;-79
2021/07/13 00:51:15;;;;;;;10.70;4.23;;;18.60;99.90;;;19.65;100.00;97474.59;4982004;28;20499;-80
2021/07/13 00:53:48;;;;;;;4.33;3.53;;;18.70;99.90;;;19.61;100.00;97472.75;4981761;28;20472;-79
2021/07/13 00:56:18;;;;;;;5.60;3.97;;;18.70;99.90;;;19.43;100.00;97477.44;4982373;28;20527;-79
2021/07/13 00:58:48;;;;;;;11.77;4.40;;;18.50;99.90;;;19.46;100.00;97470.81;4981480;28;20463;-79
2021/07/13 01:01:19;;;;;;;7.73;4.60;;;18.50;99.90;;;19.49;100.00;97471.09;4986897;28;21304;-79
2021/07/13 01:03:50;;;;;;;4.37;3.70;;;18.50;99.90;;;19.54;100.00;97463.13;4984057;28;20473;-79
2021/07/13 01:06:22;;;;;;;8.10;3.87;;;18.60;99.90;;;19.55;100.00;97463.94;4980246;28;20464;-79
2021/07/13 01:09:02;;;;;;;11.57;4.90;;;18.60;99.90;;;19.47;100.00;97453.84;4981965;28;20464;-79
2021/07/13 01:11:46;;;;;;;13.90;4.43;;;18.50;99.90;;;19.48;100.00;97464.19;4975555;28;20500;-79
2021/07/13 01:14:30;;;;;;;7.73;4.50;;;18.50;99.90;;;19.47;100.00;97465.22;4979076;28;20567;-79
2021/07/13 01:17:10;;;;;;;7.53;3.97;;;18.50;99.90;;;19.47;100.00;97465.22;4982323;28;20563;-79
2021/07/13 01:20:07;;;;;;;28.57;6.37;;;18.60;99.90;;;19.39;100.00;97468.34;4977938;28;20856;-80
2021/07/13 01:22:44;;;;;;;6.53;5.47;;;18.50;99.90;;;19.23;100.00;97466.66;4978821;28;20473;-79
2021/07/13 01:25:27;;;;;;;8.93;4.50;;;18.30;99.90;;;19.32;100.00;97473.09;4980326;28;20456;-80
2021/07/13 01:28:06;;;;;;;6.60;4.50;;;18.40;99.90;;;19.37;100.00;97467.78;4977056;28;20545;-79
2021/07/13 01:30:44;;;;;;;7.57;5.00;;;18.40;99.90;;;19.42;100.00;97465.22;4976054;28;20554;-79
2021/07/13 01:33:20;;;;;;;6.13;4.50;;;18.50;99.90;;;19.45;100.00;97459.41;4983994;28;20463;-79
2021/07/13 01:35:56;;;;;;;6.17;4.57;;;18.50;99.90;;;19.46;100.00;97454.88;4973596;28;20468;-79
2021/07/13 01:38:29;;;;;;;7.77;4.33;;;18.50;99.90;;;19.48;100.00;97458.88;4979890;28;20450;-79
2021/07/13 01:41:04;;;;;;;9.43;4.60;;;18.50;99.90;;;19.48;100.00;97455.41;4978658;28;20468;-79
2021/07/13 01:43:37;;;;;;;5.33;4.60;;;18.50;99.90;;;19.48;100.00;97458.88;4982931;28;20482;-79
2021/07/13 01:46:09;;;;;;;15.23;4.43;;;18.60;99.90;;;19.48;100.00;97460.72;4985678;28;20467;-80
2021/07/13 01:48:43;;;;;;;13.87;5.20;;;18.60;99.90;;;19.45;100.00;97454.09;4986007;28;20460;-79
2021/07/13 01:51:14;;;;;;;7.27;4.83;;;18.50;99.90;;;19.39;100.00;97465.69;4979904;28;21248;-79
2021/07/13 01:53:46;;;;;;;6.17;4.07;;;18.40;99.90;;;19.39;100.00;97476.31;4978278;28;20508;-79
2021/07/13 01:56:18;;;;;;;13.90;4.60;;;18.50;99.90;;;19.40;100.00;97477.88;4983459;28;20503;-79
2021/07/13 01:58:51;;;;;;;11.97;5.03;;;18.50;99.90;;;19.43;100.00;97473.97;4978460;28;20488;-79
2021/07/13 02:01:23;;;;;;;10.30;5.33;;;18.50;99.90;;;19.43;100.00;97464.16;4974261;28;20497;-79
2021/07/13 02:03:56;;;;;;;5.93;4.50;;;18.50;99.90;;;19.43;100.00;97463.38;4983880;28;20499;-79
2021/07/13 02:06:26;;;;;;;5.33;4.50;;;18.50;99.90;;;19.46;100.00;97466.31;4971859;28;20461;-80
2021/07/13 02:09:01;;;;;;;17.73;4.10;;;18.50;99.90;;;19.44;100.00;97471.06;4974283;28;20467;-79
2021/07/13 02:11:31;;;;;;;11.00;4.97;;;18.50;99.90;;;19.39;100.00;97460.41;4975235;28;21002;-79
2021/07/13 02:14:02;;;;;;;10.40;4.10;;;18.40;99.90;;;19.37;100.00;97467.78;4985026;28;20464;-79
2021/07/13 02:16:32;;;;;;;6.13;4.07;;;18.40;99.90;;;19.37;100.00;97457.19;4979819;28;20819;-79
2021/07/13 02:19:04;;;;;;;8.17;4.60;;;18.40;99.90;;;19.35;100.00;97448.72;4978740;28;20460;-79
2021/07/13 02:21:34;;;;;;;9.07;4.40;;;18.40;99.90;;;19.36;100.00;97450.31;4981225;28;20654;-80
2021/07/13 02:24:04;;;;;;;4.40;3.70;;;18.50;99.90;;;19.32;100.00;97446.56;4982060;28;20840;-79
2021/07/13 02:26:42;;;;;;;7.77;4.60;;;18.40;99.90;;;19.34;100.00;97452.41;4981681;28;20463;-79
2021/07/13 02:29:21;;;;;;;13.23;4.47;;;18.40;99.90;;;19.23;100.00;97452.63;4982655;28;20475;-79
2021/07/13 02:31:58;;;;;;;5.93;4.07;;;18.30;99.90;;;19.22;100.00;97449.16;4985561;28;20498;-79
2021/07/13 02:34:31;;;;;;;4.67;3.97;;;18.30;99.90;;;19.21;100.00;97446.75;4985788;28;20530;-79
2021/07/13 02:37:05;;;;;;;5.93;4.40;;;18.30;99.90;;;19.23;100.00;97444.66;4987839;28;20464;-79
2021/07/13 02:39:39;;;;;;;7.80;4.23;;;18.20;99.90;;;19.25;100.00;97446.00;4972865;28;20773;-79
2021/07/13 02:42:10;;;;;;;10.13;4.10;;;18.30;99.90;;;19.24;100.00;97441.75;4984485;28;20852;-79
2021/07/13 02:44:41;;;;;;;11.67;4.40;;;18.30;99.90;;;19.18;100.00;97436.69;4982458;28;20493;-79
2021/07/13 02:47:15;;;;;;;7.67;4.40;;;18.30;99.90;;;19.18;100.00;97440.13;4978273;28;20464;-80
2021/07/13 02:49:51;;;;;;;8.03;4.67;;;18.20;99.90;;;19.13;100.00;97442.72;4987158;28;20842;-79
2021/07/13 02:52:25;;;;;;;6.50;3.97;;;18.20;99.90;;;19.09;100.00;97444.28;4977378;28;22308;-79
2021/07/13 02:54:58;;;;;;;8.37;4.50;;;18.20;99.90;;;19.12;100.00;97448.31;4985479;28;20484;-79
2021/07/13 02:57:31;;;;;;;11.90;4.83;;;18.10;99.90;;;19.13;100.00;97439.28;4984517;28;20465;-79
2021/07/13 03:00:05;;;;;;;8.93;4.60;;;18.20;99.90;;;19.11;100.00;97436.91;4980663;28;20457;-79
2021/07/13 03:02:36;;;;;;;9.27;5.43;;;18.20;99.90;;;19.12;100.00;97433.22;4976950;28;20989;-79
2021/07/13 03:05:07;;;;;;;8.60;4.23;;;18.20;99.90;;;19.15;100.00;97438.00;4980525;28;20463;-79
2021/07/13 03:07:38;;;;;;;9.47;4.07;;;18.20;99.90;;;19.12;100.00;97433.22;4975324;28;21091;-80
2021/07/13 03:10:11;;;;;;;4.23;3.83;;;18.20;99.90;;;19.10;100.00;97430.00;4983294;28;20464;-80
2021/07/13 03:12:44;;;;;;;7.60;3.80;;;18.20;99.90;;;19.09;100.00;97423.09;4974335;28;20504;-80
2021/07/13 03:15:15;;;;;;;21.03;5.10;;;18.10;99.90;;;19.09;100.00;97425.75;4984546;28;20817;-79
2021/07/13 03:17:45;;;;;;;5.67;4.47;;;18.10;99.90;;;19.09;100.00;97423.09;4975330;28;20472;-79
2021/07/13 03:20:15;;;;;;;17.27;4.83;;;18.10;99.90;;;19.08;100.00;97421.50;4975957;28;20499;-79
2021/07/13 03:22:48;;;;;;;10.97;4.67;;;18.10;99.90;;;19.08;100.00;97427.63;4973725;28;20567;-79
2021/07/13 03:25:27;;;;;;;5.67;4.77;;;18.10;99.90;;;19.09;100.00;97423.91;4979189;28;20476;-79
2021/07/13 03:28:00;;;;;;;6.27;4.83;;;18.20;99.90;;;19.08;100.00;97419.66;4978260;28;20471;-80
2021/07/13 03:30:32;;;;;;;4.17;3.40;;;18.20;99.90;;;19.07;100.00;97412.75;4980773;28;21263;-80
2021/07/13 03:33:03;;;;;;;10.27;4.40;;;18.20;99.90;;;19.08;100.00;97402.97;4981886;28;20444;-79
2021/07/13 03:35:33;;;;;;;12.33;4.77;;;18.10;99.90;;;19.02;100.00;97402.13;4989263;28;20448;-79
2021/07/13 03:38:07;;;;;;;5.30;4.20;;;18.20;99.90;;;18.95;100.00;97393.59;4983094;28;20435;-80
2021/07/13 03:40:36;;;;;;;11.50;4.50;;;18.20;99.90;;;18.85;100.00;97396.19;4988935;28;20498;-79
2021/07/13 03:43:05;;;;;;;5.30;4.10;;;18.20;99.90;;;18.75;100.00;97401.41;4976543;28;20942;-79
2021/07/13 03:45:37;;;;;;;4.30;3.90;;;18.00;99.90;;;18.83;100.00;97416.06;4982847;28;20942;-79
2021/07/13 03:48:11;;;;;;;8.53;4.90;;;18.00;99.90;;;18.84;100.00;97420.31;4980765;28;20460;-79
2021/07/13 03:50:44;;;;;;;8.40;4.80;;;18.00;99.90;;;18.88;100.00;97416.09;4983967;28;20468;-80
2021/07/13 03:53:15;;;;;;;5.47;3.63;;;18.00;99.90;;;18.89;100.00;97407.06;4973996;28;20965;-80
2021/07/13 03:55:45;;;;;;;7.70;4.33;;;18.00;99.90;;;18.87;100.00;97407.34;4976707;28;20478;-79
2021/07/13 03:58:14;;;;;;;4.90;4.40;;;18.00;99.90;;;18.87;100.00;97403.91;4980920;28;20463;-80
2021/07/13 04:00:44;;;;;;;5.00;3.87;;;17.90;99.90;;;18.81;100.00;97404.91;4981392;28;20523;-80
2021/07/13 04:03:14;;;;;;;8.30;3.90;;;17.90;99.90;;;18.79;100.00;97401.72;4985412;28;20468;-79
2021/07/13 04:05:43;;;;;;;6.60;3.53;;;17.90;99.90;;;18.75;100.00;97388.19;4982454;28;20479;-80
2021/07/13 04:08:13;;;;;;;8.20;3.83;;;17.90;99.90;;;18.78;100.00;97382.38;4978927;28;20515;-80
2021/07/13 04:10:43;;;;;;;5.30;3.80;;;17.90;99.90;;;18.74;100.00;97378.66;4982685;28;20566;-80
2021/07/13 04:13:13;;;;;;;5.90;3.67;;;17.90;99.90;;;18.75;100.00;97377.56;4984333;28;20543;-79
2021/07/13 04:15:46;;;;;;;10.00;4.27;;;17.90;99.90;;;18.79;100.00;97369.91;4980927;28;20540;-80
2021/07/13 04:18:16;;;;;;;5.07;4.60;;;18.00;99.90;;;18.81;100.00;97367.84;4978294;28;20523;-80
2021/07/13 04:20:44;;;;;;;7.53;4.60;;;18.00;99.90;;;18.82;100.00;97380.00;4975871;28;20973;-79
2021/07/13 04:23:14;;;;;;;4.27;3.87;;;18.00;99.90;;;18.81;100.00;97365.94;4980578;28;20468;-80
2021/07/13 04:25:44;;;;;;;6.17;4.10;;;18.00;99.90;;;18.80;100.00;97356.44;4977993;28;20463;-80
2021/07/13 04:28:14;;;;;;;4.90;3.97;;;18.00;99.90;;;18.79;100.00;97354.03;4977534;28;20441;-80
2021/07/13 04:30:46;;;;;;;10.23;4.20;;;18.00;99.90;;;18.75;100.00;97353.75;4984998;28;20488;-79
2021/07/13 04:33:16;;;;;;;9.90;4.23;;;18.00;99.90;;;18.77;100.00;97358.78;4985089;28;20532;-80
2021/07/13 04:35:46;;;;;;;7.73;4.40;;;18.10;99.90;;;18.78;100.00;97363.03;4975300;28;20461;-80
2021/07/13 04:38:16;;;;;;;10.13;4.77;;;18.00;99.90;;;18.80;100.00;97376.81;4977154;28;20456;-79
2021/07/13 04:40:47;;;;;;;10.30;4.90;;;18.00;99.90;;;18.79;100.00;97375.22;4972768;28;20471;-80
2021/07/13 04:43:16;;;;;;;8.20;4.30;;;18.00;99.90;;;18.77;100.00;97374.69;4978137;28;20851;-80
2021/07/13 04:45:48;;;;;;;9.73;4.50;;;18.00;99.90;;;18.76;100.00;97391.63;4979094;28;21020;-79
2021/07/13 04:48:17;;;;;;;9.13;4.57;;;17.90;99.90;;;18.73;100.00;97392.13;4978810;28;20550;-79
2021/07/13 04:50:48;;;;;;;9.70;4.23;;;17.90;99.90;;;18.74;100.00;97404.34;4981837;28;20487;-80
2021/07/13 04:53:18;;;;;;;6.27;4.53;;;17.80;99.90;;;18.76;100.00;97410.97;4980270;28;20507;-80
2021/07/13 04:55:48;;;;;;;5.40;3.90;;;17.80;99.90;;;18.78;100.00;97416.81;4980627;28;20520;-79
2021/07/13 04:58:18;;;;;;;6.27;4.50;;;17.90;99.90;;;18.81;100.00;97418.94;4980848;28;20566;-80
2021/07/13 05:00:49;;;;;;;8.97;4.20;;;17.90;99.90;;;18.82;100.00;97419.75;4979984;28;20488;-80
2021/07/13 05:03:18;;;;;;;8.00;4.60;;;17.90;99.90;;;18.80;100.00;97409.41;4974517;28;20484;-79
2021/07/13 05:05:48;;;;;;;4.57;4.03;;;17.90;99.90;;;18.81;100.00;97411.00;4978275;28;20465;-80
2021/07/13 05:08:18;;;;;;;7.50;4.93;;;17.90;99.90;;;18.80;100.00;97408.63;4972512;28;20453;-80
2021/07/13 05:10:47;;;;;;;8.23;4.40;;;17.90;99.90;;;18.79;100.00;97412.31;4979495;28;21032;-81
2021/07/13 05:13:16;;;;;;;9.73;5.87;;;17.90;99.90;;;18.81;100.00;97399.63;4981850;28;20503;-79
2021/07/13 05:15:48;;;;;;;10.53;6.40;;;17.90;99.90;;;18.83;100.00;97393.00;4972595;28;20464;-80
2021/07/13 05:18:18;;;;;;;9.47;5.27;;;17.90;99.90;;;18.82;100.00;97395.91;4965988;28;20467;-84
2021/07/13 05:20:50;;;;;;;6.43;4.17;;;18.00;99.90;;;18.85;100.00;97390.88;4984277;28;20945;-83
2021/07/13 05:23:20;;;;;;;14.27;8.40;;;17.90;99.90;;;18.86;100.00;97387.19;4973407;28;21059;-80
2021/07/13 05:25:49;;;;;;;10.50;7.47;;;18.00;99.90;;;18.88;100.00;97385.06;4971126;28;20488;-79
2021/07/13 05:28:18;;;;;;;19.90;6.60;;;18.00;99.90;;;18.90;100.00;97379.53;4979795;28;20479;-80
2021/07/13 05:30:49;;;;;;;6.70;4.90;;;18.00;99.90;;;18.92;100.00;97380.06;4980805;28;20542;-80
2021/07/13 05:33:18;;;;;;;17.03;4.83;;;18.00;99.90;;;18.95;100.00;97376.94;4981734;28;20555;-80
2021/07/13 05:35:49;;;;;;;5.57;5.00;;;18.10;99.90;;;18.96;100.00;97363.41;4979038;28;20502;-80
2021/07/13 05:38:18;;;;;;;6.50;5.27;;;18.10;99.90;;;18.97;100.00;97365.00;4984712;28;20491;-80
2021/07/13 05:40:49;;;;;;;9.80;5.37;;;18.10;99.90;;;19.01;100.00;97365.28;4985405;28;20472;-80
2021/07/13 05:43:18;;;;;;;11.37;5.13;;;18.10;99.90;;;19.03;100.00;97360.50;4981553;28;20524;-80
2021/07/13 05:45:50;;;;;;;7.00;5.00;;;18.10;99.90;;;19.07;100.00;97361.59;4985329;28;20463;-80
2021/07/13 05:48:19;;;;;;;8.03;5.00;;;18.20;99.90;;;19.09;100.00;97360.28;4982896;28;20459;-79
2021/07/13 05:50:49;;;;;;;6.90;5.37;;;18.20;99.90;;;19.10;100.00;97361.09;4979349;28;20474;-80
2021/07/13 05:53:19;;;;;;;23.20;7.20;;;18.20;99.90;;;19.10;100.00;97361.09;4980963;28;20657;-79
2021/07/13 05:55:50;;;;;;;14.27;9.33;;;18.20;99.90;;;19.10;100.00;97355.78;4980763;28;20459;-79
2021/07/13 05:58:22;;;;;;;6.83;4.57;;;18.20;99.90;;;19.14;100.00;97361.38;4990264;28;20448;-80
2021/07/13 06:00:53;;;;;;;9.10;5.70;;;18.30;99.90;;;19.15;100.00;97366.41;4984338;28;20491;-79
2021/07/13 06:03:22;;;;;;;6.23;5.50;;;18.30;99.90;;;19.15;100.00;97362.97;4989444;28;20456;-79
2021/07/13 06:05:52;;;;;;;13.23;5.00;;;18.30;99.90;;;19.15;100.00;97362.97;4982333;28;20486;-79
2021/07/13 06:08:22;;;;;;;11.60;5.67;;;18.20;99.90;;;19.14;100.00;97366.66;4985655;28;20884;-79
2021/07/13 06:10:52;;;;;;;5.87;5.27;;;18.30;99.90;;;19.12;100.00;97368.78;4980152;28;20437;-79
2021/07/13 06:13:21;;;;;;;6.83;5.23;;;18.20;99.90;;;19.12;100.00;97363.50;4979368;28;21151;-80
2021/07/13 06:15:53;;;;;;;8.30;5.90;;;18.20;99.90;;;19.09;100.00;97365.59;4978846;28;20463;-79
2021/07/13 06:18:23;;;;;;;9.57;6.13;;;18.30;99.90;;;19.10;100.00;97369.03;4983069;28;20544;-79
2021/07/13 06:20:52;;;;;;;14.27;6.13;;;18.20;99.90;;;19.13;100.00;97365.06;4978949;28;21004;-79
2021/07/13 06:23:24;;;;;;;8.63;6.70;;;18.20;99.90;;;19.13;100.00;97379.13;4984443;28;20448;-80
2021/07/13 06:25:53;;;;;;;12.53;6.87;;;18.30;99.90;;;19.10;100.00;97372.50;4978944;28;20503;-81
2021/07/13 06:28:23;;;;;;;11.90;5.93;;;18.20;99.90;;;19.09;100.00;97380.69;4971966;28;20498;-81
2021/07/13 06:30:55;;;;;;;9.60;5.90;;;18.20;99.90;;;19.08;100.00;97385.22;4976838;28;20482;-81
2021/07/13 06:33:25;;;;;;;12.47;6.30;;;18.30;99.90;;;19.10;100.00;97379.63;4973322;28;20594;-81
2021/07/13 06:35:55;;;;;;;10.33;5.67;;;18.30;99.90;;;19.08;100.00;97384.41;4981822;28;20470;-81
2021/07/13 06:38:25;;;;;;;7.67;5.77;;;18.20;99.90;;;19.08;100.00;97384.41;4981003;28;20464;-81
2021/07/13 06:40:55;;;;;;;10.37;6.13;;;18.20;99.90;;;19.07;100.00;97383.59;4976790;28;20480;-81
2021/07/13 06:43:25;;;;;;;13.23;6.03;;;18.30;99.90;;;19.07;100.00;97374.84;4978143;28;20464;-78
2021/07/13 06:45:56;;;;;;;9.33;6.40;;;18.40;99.90;;;19.09;100.00;97385.97;4983635;28;20546;-80
2021/07/13 06:48:26;;;;;;;10.50;7.50;;;18.30;99.90;;;19.07;100.00;97398.72;4974783;28;20463;-85
2021/07/13 06:50:55;;;;;;;7.87;6.97;;;18.30;99.90;;;19.08;100.00;97395.00;4988039;28;20462;-80
2021/07/13 06:53:25;;;;;;;10.43;6.80;;;18.30;99.90;;;19.09;100.00;97399.25;4978596;28;20590;-85
2021/07/13 06:55:54;;;;;;;19.83;7.07;;;18.30;99.90;;;19.10;100.00;97398.19;4977759;28;20471;-80
2021/07/13 06:58:22;;;;;;;9.87;6.50;;;18.20;99.90;;;19.12;100.00;97397.94;4986176;28;20492;-81
2021/07/13 07:00:52;;;;;;;8.20;6.50;;;18.30;99.90;;;19.12;100.00;97401.41;4980073;28;20490;-80
2021/07/13 07:03:24;;;;;;;6.90;5.43;;;18.30;99.90;;;19.13;100.00;97404.81;4981472;28;20472;-80
2021/07/13 13:47:18;;;;;;;1.90;0.97;;;17.40;99.90;;;18.46;100.00;97535.97;5134631;27;20915;-79
2021/07/13 13:49:47;;;;;;;1.00;0.90;;;17.70;99.90;;;18.33;100.00;97525.75;5122593;27;20499;-79
2021/07/13 13:52:16;;;;;;;9.37;1.30;;;17.50;99.90;;;18.43;100.00;97528.50;5115548;27;20466;-79
2021/07/13 13:54:46;;;;;;;2.30;0.80;;;17.70;99.90;;;18.34;100.00;97532.66;5117163;27;20954;-79
2021/07/13 13:57:22;;;;;;;1.17;0.90;;;17.50;99.90;;;18.36;100.00;97530.56;5103165;27;20467;-79
2021/07/13 13:59:51;;;;;;;2.37;1.13;;;17.60;99.90;;;18.47;100.00;97520.88;5111558;27;20467;-79
2021/07/13 14:02:21;;;;;;;1.37;0.80;;;17.70;99.90;;;18.50;100.00;97515.09;5120542;27;20463;-79
2021/07/13 14:04:51;;;;;;;3.00;1.13;;;17.80;99.90;;;18.52;100.00;97524.41;5114067;27;20466;-78
2021/07/13 14:07:22;;;;;;;3.30;1.10;;;17.90;99.90;;;18.58;100.00;97528.69;5110260;27;20461;-78
2021/07/13 14:09:51;;;;;;;1.50;0.90;;;17.90;99.90;;;18.65;100.00;97530.34;5114836;27;20892;-78
2021/07/13 14:12:41;;;;;;;2.10;0.87;;;17.90;99.90;;;18.63;100.00;97525.31;5119618;27;21046;-78
2021/07/13 14:15:14;;;;;;;1.00;0.80;;;17.90;99.90;;;18.58;100.00;97522.59;5116328;27;20527;-79
2021/07/13 14:17:46;;;;;;;2.30;0.90;;;17.80;99.90;;;18.58;100.00;97515.47;5116807;27;20538;-77
2021/07/13 14:20:18;;;;;;;1.37;0.80;;;17.80;99.90;;;18.59;100.00;97513.63;5114685;27;20539;-80
2021/07/13 14:22:48;;;;;;;1.90;0.80;;;17.80;99.90;;;18.57;100.00;97505.09;5121716;27;20984;-77
2021/07/13 14:25:18;;;;;;;0.90;0.70;;;17.70;99.90;;;18.63;100.00;97508.63;5111821;27;20533;-76
2021/07/13 14:27:47;;;;;;;4.60;0.93;;;17.80;99.90;;;18.69;100.00;97507.59;5118733;27;20944;-77
2021/07/13 14:30:17;;;;;;;4.90;0.90;;;17.90;99.90;;;18.72;100.00;97518.50;5114659;27;20796;-79
2021/07/13 14:32:48;;;;;;;2.47;1.00;;;17.90;99.90;;;18.82;100.00;97512.47;5118736;27;20470;-76
2021/07/13 14:35:16;;;;;;;1.17;0.80;;;18.00;99.90;;;18.87;100.00;97505.38;5115466;27;20495;-75
2021/07/13 14:37:46;;;;;;;1.40;0.90;;;18.00;99.90;;;18.81;100.00;97492.34;5111393;27;20978;-77
2021/07/13 14:40:16;;;;;;;1.60;0.80;;;18.00;99.90;;;18.82;100.00;97478.03;5122277;27;20463;-78
2021/07/13 14:42:46;;;;;;;1.97;0.90;;;18.10;99.90;;;18.84;100.00;97473.28;5115262;27;20458;-77
2021/07/13 14:45:16;;;;;;;5.57;0.97;;;18.10;99.90;;;18.73;100.00;97468.97;5114420;27;20511;-79
2021/07/13 14:47:47;;;;;;;8.23;5.27;;;18.00;99.90;;;18.78;100.00;97469.78;5099157;28;20469;-79
2021/07/13 14:50:16;;;;;;;2.13;1.50;;;18.10;99.90;;;18.76;100.00;97461.31;5093423;28;20479;-80
2021/07/13 14:52:45;;;;;;;4.10;2.33;;;18.00;99.90;;;18.84;100.00;97460.03;5103256;28;20467;-77
2021/07/13 14:55:15;;;;;;;1.63;1.10;;;18.20;99.90;;;18.88;100.00;97463.78;5106815;28;20454;-79
2021/07/13 14:57:44;;;;;;;1.40;1.00;;;18.20;99.90;;;18.97;100.00;97478.16;5100643;27;20482;-77
2021/07/13 15:00:15;;;;;;;1.60;1.17;;;18.20;99.90;;;19.02;100.00;97475.56;5101299;28;20459;-80
2021/07/13 15:02:48;;;;;;;3.13;1.03;;;18.20;99.90;;;19.14;100.00;97481.47;5102472;28;20459;-80
2021/07/13 15:05:20;;;;;;;1.10;0.90;;;18.40;99.90;;;19.16;100.00;97474.03;5099332;28;20569;-81
2021/07/13 15:07:49;;;;;;;1.57;1.00;;;18.40;99.90;;;19.07;100.00;97473.72;5102109;28;20934;-81
2021/07/13 15:10:18;;;;;;;1.50;0.83;;;18.30;99.90;;;19.05;100.00;97469.75;5104170;28;20470;-81
2021/07/13 15:12:47;;;;;;;3.33;1.00;;;18.20;99.90;;;19.04;100.00;97471.59;5101820;28;20909;-81
2021/07/13 15:15:16;;;;;;;1.20;0.90;;;18.30;99.90;;;19.02;100.00;97480.84;5097642;28;20442;-81
2021/07/13 15:17:47;;;;;;;4.17;0.90;;;18.20;99.90;;;19.01;100.00;97481.91;5093169;27;20808;-81
2021/07/13 15:20:17;;;;;;;1.40;0.73;;;18.20;99.90;;;18.99;100.00;97489.28;5104880;28;20896;-81
2021/07/13 15:22:46;;;;;;;1.20;0.90;;;18.20;99.90;;;18.92;100.00;97486.84;5097690;28;20443;-82
2021/07/13 15:25:16;;;;;;;1.00;0.70;;;18.10;99.90;;;18.97;100.00;97483.47;5104569;28;20446;-80
2021/07/13 15:27:46;;;;;;;2.10;0.80;;;18.10;99.90;;;18.97;100.00;97478.16;5093853;28;20484;-80
2021/07/13 15:30:16;;;;;;;0.90;0.80;;;18.20;99.90;;;18.91;100.00;97476.53;5079170;27;20507;-80
2021/07/13 15:32:46;;;;;;;0.90;0.70;;;18.10;99.90;;;18.90;100.00;97477.56;5045467;28;20515;-80
2021/07/13 15:35:15;;;;;;;32.50;17.70;;;18.00;99.90;;;18.87;100.00;97483.38;5043012;28;21212;-80
2021/07/13 15:37:45;;;;;;;1.53;1.10;;;18.00;99.90;;;18.82;100.00;97504.53;5043863;28;20982;-82
2021/07/13 15:40:15;;;;;;;3.80;0.90;;;18.00;99.90;;;18.83;100.00;97508.78;5046725;28;20516;-81
2021/07/13 15:42:44;;;;;;;1.00;0.77;;;18.00;99.90;;;18.84;100.00;97505.91;5038461;28;20466;-81
2021/07/13 15:45:15;;;;;;;0.90;0.70;;;18.00;99.90;;;18.89;100.00;97503.28;5048364;28;20479;-81
2021/07/13 15:47:46;;;;;;;1.10;0.97;;;18.00;99.90;;;18.89;100.00;97497.16;5044331;28;20454;-81
2021/07/13 15:50:15;;;;;;;1.73;0.87;;;18.00;99.90;;;19.01;100.00;97495.16;5044848;28;20475;-81
2021/07/13 15:52:46;;;;;;;3.40;0.87;;;18.20;99.90;;;19.05;100.00;97493.59;5044504;28;20884;-81
2021/07/13 15:55:17;;;;;;;0.90;0.70;;;18.20;99.90;;;19.06;100.00;97493.31;5048168;28;20946;-81
2021/07/13 15:57:45;;;;;;;0.93;0.77;;;18.20;99.90;;;19.05;100.00;97486.41;5046794;28;20914;-81
2021/07/13 16:00:17;;;;;;;0.90;0.70;;;18.30;99.90;;;18.92;100.00;97475.47;5040429;28;20536;-81
2021/07/13 16:02:48;;;;;;;1.10;0.90;;;18.00;99.90;;;18.95;100.00;97474.97;5047933;28;20445;-80
2021/07/13 16:05:17;;;;;;;1.17;0.83;;;18.10;99.90;;;18.96;100.00;97477.34;5046538;28;20473;-80
2021/07/13 16:07:48;;;;;;;1.00;0.83;;;18.20;99.90;;;18.86;100.00;97471.19;5046294;28;20832;-80
2021/07/13 16:10:20;;;;;;;1.00;0.90;;;18.00;99.90;;;18.89;100.00;97470.66;5046867;28;20449;-81
2021/07/13 16:12:52;;;;;;;1.13;0.80;;;18.10;99.90;;;18.88;100.00;97477.81;5047468;28;20515;-80
2021/07/13 16:15:21;;;;;;;0.90;0.70;;;18.10;99.90;;;18.94;100.00;97479.47;5047060;28;20485;-80
2021/07/13 16:17:50;;;;;;;1.00;0.80;;;18.20;99.90;;;18.99;100.00;97476.03;5046832;28;20790;-81
2021/07/13 16:20:20;;;;;;;3.33;0.93;;;18.40;99.90;;;19.00;100.00;97483.75;5046169;28;20939;-80
2021/07/13 16:22:52;;;;;;;2.33;0.93;;;18.40;99.90;;;18.92;100.00;97478.09;5046934;28;20445;-81
2021/07/13 16:25:22;;;;;;;7.00;1.00;;;18.40;99.90;;;18.92;100.00;97486.06;5047912;28;20496;-79
2021/07/13 16:27:51;;;;;;;1.20;1.00;;;18.30;99.90;;;18.88;100.00;97480.47;5047325;28;20896;-81
2021/07/13 16:30:21;;;;;;;1.97;0.90;;;18.20;99.90;;;18.90;100.00;97482.88;5042019;28;20700;-81
2021/07/13 16:32:51;;;;;;;1.23;1.13;;;18.20;99.90;;;18.77;100.00;97483.31;5046734;28;20491;-80
2021/07/13 16:35:20;;;;;;;1.93;1.10;;;18.00;99.90;;;18.76;100.00;97487.00;5045506;28;20468;-80
2021/07/13 16:37:52;;;;;;;6.13;3.77;;;18.00;99.90;;;18.73;100.00;97482.22;5040923;28;20492;-82
2021/07/13 16:40:22;;;;;;;2.83;1.10;;;18.10;99.90;;;18.77;100.00;97488.59;5043456;28;20472;-80
2021/07/13 16:42:51;;;;;;;1.40;1.20;;;18.20;99.90;;;18.73;100.00;97503.41;5046890;28;20834;-80
2021/07/13 16:45:20;;;;;;;4.30;1.20;;;18.20;99.90;;;18.80;100.00;97515.41;5044057;28;20485;-80
2021/07/13 16:47:49;;;;;;;2.27;1.00;;;18.20;99.90;;;18.83;100.00;97514.09;5043047;28;20795;-80
2021/07/13 16:50:19;;;;;;;1.60;1.30;;;18.20;99.90;;;18.83;100.00;97514.09;5047206;28;20450;-80
2021/07/13 16:52:50;;;;;;;1.40;1.23;;;18.20;99.90;;;18.81;100.00;97510.91;5046028;28;20448;-80
2021/07/13 16:55:26;;;;;;;2.23;1.37;;;18.10;99.90;;;18.82;100.00;97518.56;5043480;28;20448;-79
2021/07/13 16:57:56;;;;;;;1.10;0.90;;;18.20;99.90;;;18.65;100.00;97533.00;5043158;28;20493;-79
2021/07/13 17:00:27;;;;;;;6.20;1.00;;;17.90;99.90;;;18.44;100.00;97532.75;5046562;28;20438;-80
2021/07/13 17:02:57;;;;;;;1.20;0.90;;;17.60;99.90;;;18.27;100.00;97523.31;5046669;28;20469;-80
2021/07/13 17:05:27;;;;;;;3.27;0.90;;;17.40;99.90;;;18.17;100.00;97524.00;5046205;28;20911;-81
2021/07/13 17:07:56;;;;;;;1.73;1.00;;;17.30;99.90;;;18.23;100.00;97535.44;5044162;28;20954;-79